Aeroporto :
LOGIN :

Iscrizione | Disclaimer

   EN    FR    IT 

 










Sommario :    VFR   VFR Marginale   IFR   IFR Intensivo   IFR Molto Intensivo
Visibilità : 
Base nubi : 
>= 8 km
>= 3000ft
5 / 8 km
1000 / 3000 ft
1500m / 5 km
500 / 1000 ft
800 / 1500m
200 / 500 ft
< 800m
< 200 ft
Simboli :   Temporali  Nebbia  Neve Forte  Precipitazioni Forti  Vento > 20 kt
SIGMETs :   Varie  Temporali  Ghiacco  Turbolenza  Onda orograficha  Ceneri Vulcaniche






- Altitudine del aeroporto : 90 ft
- Codice IATA : NTE


LFRS - Nantes

ULTIMO METAR :
  • 180200Z AUTO 23011G25KT 190V260 4600 RA BR FEW016/// BKN024/// BKN034/// ///CB 13/12 Q1008 TEMPO 2000 TSRA BKN007 BKN030CB

METARs OBSOLETI :
  • 180130Z AUTO 23010KT 9999 FEW010/// BKN025/// BKN035/// ///CB 14/12 Q1008 TEMPO 23020G30KT 2000 TSRA BKN007 BKN030CB
  • 180100Z AUTO 22011KT 9999 FEW040/// BKN048/// BKN060/// ///CB 15/11 Q1007 TEMPO 23020G30KT 2000 TSRA BKN007 BKN030CB
  • 180030Z AUTO 22011KT 190V260 9999 FEW040 BKN086 14/12 Q1008 TEMPO 23020G30KT 2000 TSRA BKN007 BKN030CB
  • 180000Z AUTO 21014KT 9999 SCT021/// BKN026/// BKN037/// ///TCU 14/12 Q1008 TEMPO 23020G30KT 2000 TSRA BKN007 BKN030CB
  • 172330Z AUTO 20014KT 9999 FEW018/// SCT033/// BKN047/// ///CB 14/12 Q1008 TEMPO 23020G30KT 2000 TSRA BKN007 BKN030CB

TAF TAF LFRS
Valido dal 18 a 00 ore il 19 a 06 ore UTC


172300Z 1800/1906 22012KT 9999 FEW025 BKN100
TEMPO 1800/1816 3000 SHRA BKN015TCU SCT030CB
PROB40
TEMPO 1800/1805 23020G30KT 2000 TSRA BKN007 BKN030CB
BECMG 1818/1820 4000 -RA
TEMPO 1820/1906 2500 RA BKN007
ATIS : +33 2 40 05 12 74



MetMap, La meteo Aeronautica in un colpo d'occhio ! - Copyright ORBIFLY Dicembre 2007 - Disclaimer

ORBIFLY MET'MAP TEAM :

Programmazione e sviluppo : Alexandra Zaïnal
Concezione e sviluppo : Baudouin d'Aumeries
Co-Programmazione e sviluppo : Marc-Olivier Méhu
Supporto tecnico e logistico : Manuel Goepfert
Aiuto per la traduzione : Arnaldo La Scala

Contatto : metmap@orbifly.com




FONTI E CREDITI :

   NOAA